5th Annual Squamish Triathlon
             Results by RACE HEADQUARTERS - Darcy Locke 552-0799
                                                          Sunday July 14, 2002


      FINAL OVERALL Results

 FINAL Place     Place/TOTAL    FINAL  BIB  NAME of               SWIM 1.5Km BIKE 40 Km  Mi. End of BIKE  RUN  10 Km  PACE
 PLACE in SEX    in DIVISION    TIME   NO. COMPETITOR             Rank Split Rank Split /Hr. Place  TIME  Rank Split /Mile CITY

    1   1/201 M  1/10 M2024  1:56:02  477 Adam Campbell             6 20:10    3 1:01:14  24.4    3 1:21:24    1 34:38  5:35 Victoria,BC     
    2   2/201 M  1/47 M3034  1:57:04   17 Jay Barberie              5 20:09    2 1:01:13  24.4    2 1:21:22    2 35:42  5:45 Vancouver,BC    
    3   3/201 M  1/33 M3539  1:57:57    2 Gord Addison             12 20:50    1 1:00:47  24.5    5 1:21:37    4 36:20  5:51 Squamish,BC     
    4   4/201 M  2/47 M3034  1:58:24  236 Darren Mealing            3 20:03    7 1:01:32  24.2    4 1:21:35    5 36:49  5:56 Delta,BC        
    5   5/201 M  2/10 M2024  2:00:30  316 Greg Stubbs               1 18:01    6 1:01:31  24.2    1 1:19:32   21 40:58  6:36 Victoria,BC     
    6   6/201 M  1/23 M2529  2:02:33  141 Mark Hinder              15 21:35   12 1:02:32  23.8   10 1:24:07    7 38:26  6:12 Burnaby,BC      
    7   7/201 M  3/47 M3034  2:03:08  273 Paul Pierobon            24 22:07   11 1:02:04  24.0   11 1:24:11    8 38:57  6:17 Vancouver,BC    
    8   8/201 M  4/47 M3034  2:03:22   60 Tim Cole                  7 20:15    9 1:01:40  24.2    7 1:21:55   26 41:27  6:41 ,BC             
    9   9/201 M  5/47 M3034  2:03:36   46 Alan Carlsson             2 19:58   15 1:03:29  23.5    8 1:23:27   13 40:09  6:28 North Vancouver,
   10  10/201 M  2/23 M2529  2:04:53   70 Brad Cunningham          18 21:51   25 1:04:57  23.0   17 1:26:48    6 38:05  6:08 Victoria,BC     
   11  11/201 M  6/47 M3034  2:06:19  478 Ed Smith                 27 22:17   19 1:04:22  23.2   15 1:26:39   11 39:40  6:24 Vancouver,BC    
   12  12/201 M  7/47 M3034  2:06:32  154 Michael Hustler          21 22:02    8 1:01:38  24.2    9 1:23:40   42 42:52  6:54 Vancouver,BC    
   13  13/201 M  8/47 M3034  2:08:12   24 Darin Bentley            35 23:15   14 1:03:17  23.6   14 1:26:32   29 41:40  6:43 Cloverdale,BC   
   14   1/41  R  1/9  R-Fem  2:08:22  366  On a Mission            22 22:06   27 1:05:07  22.9   18 1:27:13   24 41:09  6:38 Whistler,BC     
   15  14/201 M  3/10 M2024  2:08:37   14 Arthur Ayers             52 24:10   17 1:04:08  23.3   21 1:28:18   15 40:19  6:30 Vancouver,BC    
   16   2/41  R  1/22 R-Mix  2:08:46  380  Team Tantalus           75 24:58    4 1:01:21  24.3   13 1:26:19   36 42:27  6:50 Squamish,BC     
   17  15/201 M  3/23 M2529  2:08:48   34 Allan Boos               47 23:54   24 1:04:45  23.0   26 1:28:39   14 40:09  6:28 Abbotsford,BC   
   18  16/201 M  2/33 M3539  2:09:55  464 Duncan Wood              72 24:50   21 1:04:37  23.1   32 1:29:27   18 40:28  6:31 Richmond,BC     
   19  17/201 M  4/23 M2529  2:10:02  252 James Muter              23 22:06   50 1:06:56  22.3   28 1:29:02   22 41:00  6:36 Richmond,BC     
   20  18/201 M  9/47 M3034  2:10:18  340 Paul Tylla               49 23:59   20 1:04:26  23.1   23 1:28:25   31 41:53  6:45 Coquitlam,BC    
   21  19/201 M  1/18 M4549  2:10:21  223 Al Mayer                 70 24:47   35 1:05:49  22.7   44 1:30:36   12 39:45  6:24 Chelan,WA       
   22   1/167 F  1/18 F2024  2:10:30  211 Jennifer MacLean         42 23:39   10 1:02:03  24.0   12 1:25:42   75 44:48  7:13 Victoria,BC     
   23   2/167 F  2/18 F2024  2:11:07   49 Kristine Chambers        26 22:10   29 1:05:17  22.8   19 1:27:27   55 43:40  7:02 Vancouver,BC    
   24   3/167 F  1/50 F3034  2:11:54  277 Tracey Pope              11 20:47   59 1:07:33  22.1   22 1:28:20   53 43:34  7:01 Pemberton,BC    
   25  20/201 M  2/18 M4549  2:11:58  303 Mark Shorter             69 24:45   48 1:06:52  22.3   50 1:31:37   17 40:21  6:30 North Vancouver,
   26  21/201 M  1/44 M4044  2:12:10  319 Paul Suter               41 23:38   26 1:04:57  23.0   25 1:28:35   54 43:35  7:01 Whistler,BC     
   27  22/201 M 10/47 M3034  2:12:23   62 Gord Cooper              30 22:28   47 1:06:38  22.4   29 1:29:06   50 43:17  6:58 Pitt Meadows,BC 
   28  23/201 M 11/47 M3034  2:12:35  237 Mike Medland             40 23:36   40 1:06:12  22.5   37 1:29:48   39 42:47  6:54 North Vancouver,
   29  24/201 M  5/23 M2529  2:12:55  209 Sam Lupton               65 24:41   30 1:05:24  22.8   40 1:30:05   41 42:50  6:54 Vancouver,BC    
   30   3/41  R  1/10 R-Male 2:12:59  382  The Firesnakes          38 23:26   13 1:03:14  23.6   16 1:26:40  101 46:19  7:28 Garibaldi Highln,
   31   4/41  R  2/10 R-Male 2:13:01  387  Two Fast and Last Gas    8 20:26    5 1:01:28  24.3    6 1:21:54  194 51:07  8:14 Vancouver,BC    
   32  25/201 M 12/47 M3034  2:13:10  212 Rob MacLeod              31 22:50   43 1:06:22  22.5   30 1:29:12   61 43:58  7:05 Squamish,BC     
   33   4/167 F  2/50 F3034  2:13:44  125 Tracy Hall               74 24:57   53 1:07:10  22.2   55 1:32:07   28 41:37  6:42 Vancouver,BC    
   34  26/201 M  2/44 M4044  2:13:48  291 David Robertson          86 25:10   18 1:04:18  23.2   34 1:29:28   66 44:20  7:09 Burnaby,BC      
   35  27/201 M  6/23 M2529  2:13:53  280 Paul Purin               46 23:49   82 1:08:35  21.7   60 1:32:24   27 41:29  6:41 North Vancouver,
   36  28/201 M 13/47 M3034  2:14:05  290 David Roberts            36 23:19   38 1:06:00  22.6   31 1:29:19   74 44:46  7:13 Vancouver,BC    
   37  29/201 M 14/47 M3034  2:14:36  139 David Higgins            13 21:06   91 1:09:03  21.6   41 1:30:09   71 44:27  7:10 Whistler,BC     
   38  30/201 M  3/44 M4044  2:14:37  229 Michael McGee           179 28:02   42 1:06:16  22.5   81 1:34:18   16 40:19  6:30 Maple Ridge,BC  
   39  31/201 M 15/47 M3034  2:14:45  468 Jim Worrall              56 24:23   65 1:07:55  22.0   57 1:32:18   37 42:27  6:50 North Vancouver,
   40   5/167 F  1/22 F3539  2:14:47  195 Jacqueline Lewis         19 21:59   77 1:08:21  21.8   43 1:30:20   72 44:27  7:10 Ladysmith,BC    
   41  32/201 M 16/47 M3034  2:14:49  101 Francois Fournier        82 25:08   92 1:09:09  21.6   79 1:34:17   19 40:32  6:32 Whistler,BC     
   42  33/201 M  4/44 M4044  2:15:11   11 Tai Araki                25 22:09   56 1:07:27  22.1   35 1:29:36   90 45:35  7:21 Surrey,BC       
   43   5/41  R  3/10 R-Male 2:15:11  365  Off the Couch           63 24:37   63 1:07:47  22.0   61 1:32:24   40 42:47  6:54 Squamish,BC     
   44  34/201 M  4/10 M2024  2:15:15  218 Daniel Marquardt          4 20:04   79 1:08:26  21.8   24 1:28:30  108 46:45  7:32 Delta,BC        
   45   6/41  R  2/22 R-Mix  2:15:28  373  Shake, Rattle & Roll    16 21:43   97 1:09:22  21.5   47 1:31:05   68 44:23  7:09 Garibaldi Highln,
   46  35/201 M 17/47 M3034  2:15:38  120 Matthew Greenwood        58 24:28   54 1:07:13  22.2   53 1:31:41   60 43:57  7:05 Vancouver,BC    
   47  36/201 M 18/47 M3034  2:15:42   93 Brice Evans              81 25:07   23 1:04:42  23.0   38 1:29:49   95 45:53  7:24 Vancouver,BC    
   48  37/201 M 19/47 M3034  2:16:00   25 Pierre Berube            29 22:22  135 1:11:40  20.8   76 1:34:02   32 41:58  6:46 Vancouver,BC    
   49  38/201 M  7/23 M2529  2:16:01  121 Stephan Guerin           62 24:35   28 1:05:11  22.9   36 1:29:46   99 46:15  7:27 Garibaldi Highln,
   50  39/201 M 20/47 M3034  2:16:02  113 Ian Goard               105 25:38   62 1:07:39  22.0   66 1:33:17   38 42:45  6:53 Whistler,BC     
   51  40/201 M  5/44 M4044  2:16:07  226 John McCulloch           32 22:52   45 1:06:35  22.4   33 1:29:27  107 46:40  7:31 Vancouver,BC    
   52  41/201 M  3/33 M3539  2:16:09  299 Alex Seal               120 26:05   33 1:05:43  22.7   54 1:31:48   67 44:21  7:09 Salmon Arm,BC   
   53  42/201 M  1/3  M1519  2:16:15  461 Mike Wilson              87 25:10   52 1:07:09  22.2   58 1:32:19   59 43:56  7:05 Victoria,BC     
   54  43/201 M  6/44 M4044  2:16:38  115 Mark Goozee              77 25:05   46 1:06:35  22.4   52 1:31:40   78 44:58  7:15 North Vancouver,
   55   7/41  R  4/10 R-Male 2:16:40  364  Noakes/Ellis/Smith      71 24:48   84 1:08:49  21.7   71 1:33:37   47 43:03  6:56 Squamish,BC     
   56  44/201 M  7/44 M4044  2:16:49  310 Andrew Spence            28 22:19  116 1:10:43  21.1   64 1:33:02   57 43:47  7:03 Vancouver,BC    
   57   8/41  R  3/22 R-Mix  2:16:50  358  HammerTime              53 24:15  102 1:09:41  21.4   75 1:33:56   43 42:54  6:55 Vancouver,BC    
   58  45/201 M  5/10 M2024  2:17:06  324 Carl Tessman            101 25:33   36 1:05:51  22.6   48 1:31:24   91 45:42  7:22 North Vancouver,
   59  46/201 M  3/18 M4549  2:17:07  130 Daniel Havens            68 24:44  159 1:13:03  20.4  126 1:37:47    9 39:20  6:20 Whistler,BC     
   60   6/167 F  1/43 F2529  2:17:10  295 Sophia Sagur             44 23:45   81 1:08:30  21.8   56 1:32:15   76 44:55  7:14 Vancouver,BC    
   61  47/201 M  8/23 M2529  2:17:19  103 Chad France              17 21:49   86 1:08:56  21.6   45 1:30:45  103 46:34  7:30 Campbell River,B
   62  48/201 M 21/47 M3034  2:17:38   22 Lawrence Bendandi       165 27:37   78 1:08:21  21.8   93 1:35:58   30 41:40  6:43 Vancouver,BC    
   63  49/201 M  4/33 M3539  2:17:59   10 Bruce Angus              93 25:21   41 1:06:15  22.5   49 1:31:36  102 46:23  7:28 North Vancouver,
   64   9/41  R  5/10 R-Male 2:18:03  388  Mike,Sean,Jody                                       132 1:38:33   10 39:30  6:22 ,BC             
   65  50/201 M 22/47 M3034  2:18:14  470 Jason Young              80 25:06   61 1:07:37  22.1   62 1:32:43   88 45:31  7:20 Maple Ridge,BC  
   66  51/201 M  8/44 M4044  2:18:25  163 Paul Johnson             55 24:17  117 1:10:43  21.1   87 1:35:00   51 43:25  7:00 Vancouver,BC    
   67  52/201 M  9/44 M4044  2:18:55   44 Rollie Campbell         104 25:37   69 1:08:06  21.9   73 1:33:43   80 45:12  7:17 Richmond,BC     
   68  53/201 M 23/47 M3034  2:19:14  221 Paul Martinson          138 26:31   60 1:07:35  22.1   77 1:34:06   79 45:08  7:16 Vancouver,BC    
   69   7/167 F  2/43 F2529  2:19:14  219 Rebecca Marshall        118 25:58  110 1:10:21  21.2   97 1:36:19   44 42:55  6:55 Vancouver,BC    
   70  54/201 M  9/23 M2529  2:19:27  348 Patrick Wadge           116 25:53   64 1:07:49  22.0   72 1:33:42   93 45:45  7:22 Squamish,BC     
   71  55/201 M 10/44 M4044  2:19:42  185 Ross Lauder              59 24:31  146 1:12:11  20.7  107 1:36:42   46 43:00  6:56 North Vancouver,
   72  56/201 M 24/47 M3034  2:19:43  256 Paul Nicholas           133 26:25  124 1:10:55  21.0  121 1:37:20   35 42:23  6:50 Whistler,BC     
   73  57/201 M  5/33 M3539  2:20:04  158 David Jackson           141 26:34  103 1:09:50  21.4   99 1:36:24   56 43:40  7:02 Point Roberts,WA
   74   8/167 F  3/50 F3034  2:20:09  341 Kristine Van Kleef      102 25:33   67 1:07:57  21.9   68 1:33:30  106 46:39  7:31 Delta,BC        
   75  58/201 M  6/33 M3539  2:20:12   56 Todd Clayton            178 28:01   32 1:05:35  22.7   69 1:33:36  104 46:36  7:30 Port Angeles,WA 
   76  59/201 M 25/47 M3034  2:20:24  159 Kibben Jackson           50 24:04   88 1:09:00  21.6   65 1:33:04  121 47:20  7:38 Vancouver,BC    
   77  60/201 M  7/33 M3539  2:20:31   26 Carl Bessai             130 26:22  105 1:10:04  21.3  102 1:36:26   62 44:05  7:06 Vancouver,BC    
   78  61/201 M  4/18 M4549  2:20:40  456 Doug Wiebe              121 26:06  118 1:10:44  21.1  110 1:36:50   58 43:50  7:04 Belcarra,BC     
   79  10/41  R  4/22 R-Mix  2:20:43  360  Lactic Acid             33 22:57   22 1:04:41  23.1   20 1:27:38  226 53:05  8:33 Nanaimo,BC      
   80   9/167 F  4/50 F3034  2:20:53  480 Elizabeth Hatch         143 26:36   34 1:05:43  22.7   59 1:32:19  146 48:34  7:49 Maple Ridge,BC  
   81  62/201 M  8/33 M3539  2:20:55  233 Neil McKinnon           196 28:34  131 1:11:20  20.9  141 1:39:54   23 41:01  6:37 Garibaldi Highln,
   82  63/201 M 11/44 M4044  2:20:57  145 Chris Honey              76 25:04  132 1:11:23  20.9  103 1:36:27   73 44:30  7:10 Vancouver,BC    
   83  64/201 M 12/44 M4044  2:21:03  106 Vincent Gabel           175 27:59  106 1:10:07  21.3  130 1:38:06   45 42:57  6:55 Coquitlam,BC    
   84  10/167 F  3/18 F2024  2:21:11  198 Kelena Lineham           60 24:31  149 1:12:28  20.6  111 1:36:59   64 44:12  7:07 Victoria,BC     
   85  65/201 M 10/23 M2529  2:21:17  202 Jason Lopez              37 23:25   44 1:06:33  22.4   39 1:29:58  198 51:19  8:16 Vancouver,BC    
   86  11/167 F  5/50 F3034  2:21:32  479 D'arcey Musselman         9 20:26  150 1:12:32  20.6   63 1:32:58  147 48:34  7:49 Toronto,ON      
   87  66/201 M  6/10 M2024  2:22:02   75 Julio Daza               90 25:13   70 1:08:06  21.9   67 1:33:19  151 48:43  7:51 Burnaby,BC      
   88  67/201 M 13/44 M4044  2:22:08   28 Roger Bing-Wo           186 28:17   37 1:05:52  22.6   78 1:34:09  135 47:59  7:44 Vancouver,BC    
   89  68/201 M 11/23 M2529  2:22:26  243 Peter Moffat            183 28:11   39 1:06:06  22.6   80 1:34:17  138 48:09  7:45 North Vancouver,
   90  12/167 F  6/50 F3034  2:22:45  193 Anne Lewandowski        131 26:23  114 1:10:39  21.1  115 1:37:02   92 45:43  7:22 Vancouver,BC    
   91  69/201 M  9/33 M3539  2:22:50  179 Kirby Koochin            92 25:17  173 1:14:07  20.1  138 1:39:24   52 43:26  7:00 North Vancouver,
   92  70/201 M 12/23 M2529  2:23:03   90 Anthony Epp             235 29:40  142 1:12:00  20.7  171 1:41:40   25 41:23  6:40 Vancouver,BC    
   93  13/167 F  3/43 F2529  2:23:07   99 Keri Fessey             158 27:15  104 1:09:53  21.3  116 1:37:08   96 45:59  7:25 Coupeville,WA   
   94  11/41  R  5/22 R-Mix  2:23:09  391  No Name Team            51 24:07   57 1:07:30  22.1   51 1:31:37  203 51:32  8:18 Squamish,BC     
   95  71/201 M 14/44 M4044  2:23:10   50 Peter Chappell          122 26:08   74 1:08:10  21.9   82 1:34:18  154 48:52  7:52 Port Moody,BC   
   96  72/201 M  2/3  M1519  2:23:12  172 Alex Kardos              45 23:48  115 1:10:40  21.1   84 1:34:28  152 48:44  7:51 Courtenay,BC    
   97  14/167 F  7/50 F3034  2:23:19  460 Marcia Wilson            88 25:11  113 1:10:38  21.1   92 1:35:49  125 47:30  7:39 Kamloops,BC     
   98  73/201 M  5/18 M4549  2:23:21    1 Ken Adams               287 31:43  101 1:09:36  21.4  166 1:41:19   33 42:02  6:46 Garibaldi Highln,
   99  74/201 M  1/8  M5559  2:23:26  266 Brian Parkinson         144 26:41   99 1:09:31  21.5   94 1:36:12  118 47:14  7:37 Langley,BC      
  100  75/201 M 10/33 M3539  2:23:39   52 Mike Charuk             160 27:17   80 1:08:27  21.8   91 1:35:44  134 47:55  7:43 Whistler,BC     
  101  76/201 M 13/23 M2529  2:23:40  228 Matt McDowell           139 26:33   90 1:09:02  21.6   90 1:35:35  136 48:05  7:45 Powell River,BC 
  102  77/201 M 26/47 M3034  2:23:57  328 Raffi Titizian          145 26:43  223 1:16:35  19.5  197 1:43:18   20 40:39  6:33 Vancouver,BC    
  103  12/41  R  6/10 R-Male 2:23:58  385  Try-UMPH               215 29:06   68 1:08:02  21.9  117 1:37:08  110 46:50  7:33 Squamish,BC     
  104  78/201 M  2/8  M5559  2:24:00  331 Stephen Torgesen        177 28:00   75 1:08:13  21.9   95 1:36:13  131 47:47  7:42 Sequim,WA       
  105  79/201 M 11/33 M3539  2:24:01  143 Neil Holm               316 33:10  201 1:15:08  19.8  245 1:48:18    3 35:43  5:45 Courtenay,BC    
  106  15/167 F  4/43 F2529  2:24:03   89 Heather Enns             10 20:40  109 1:10:17  21.2   46 1:30:57  228 53:06  8:33 Delta,BC        
  107  16/167 F  5/43 F2529  2:24:04    9 Jessica Ament           193 28:30   96 1:09:20  21.5  128 1:37:50   98 46:14  7:27 Vancouver,BC    
  108  17/167 F  6/43 F2529  2:24:06  454 Carolyn Wick            140 26:33   89 1:09:01  21.6   89 1:35:34  145 48:32  7:49 Vancouver,BC    
  109  13/41  R  2/9  R-Fem  2:24:07  351 ck 2 City Slicks & 1 C  173 27:52   95 1:09:16  21.5  118 1:37:08  113 46:59  7:34 Squamish,BC     
  110  80/201 M 27/47 M3034  2:24:08  264 Trevor Olson             20 22:01   72 1:08:09  21.9   42 1:30:10  249 53:58  8:42 Vancouver,BC    
  111  81/201 M 12/33 M3539  2:24:11  466 Steve Woodyear-Smith    149 26:52   98 1:09:27  21.5   98 1:36:19  132 47:52  7:43 North Vancouver,
  112  18/167 F  8/50 F3034  2:24:16   23 Janine Benson            98 25:27  130 1:11:15  20.9  108 1:36:42  127 47:34  7:40 Coquitlam,BC    
  113  14/41  R  3/9  R-Fem  2:24:19  379  Tantalus Tri-Diablas   108 25:42   71 1:08:08  21.9   74 1:33:50  183 50:29  8:08 Garibaldi Highln,
  114  19/167 F  4/18 F2024  2:24:22  239 Dana Mersich            107 25:41  137 1:11:47  20.8  124 1:37:28  112 46:54  7:33 Vancouver,BC    
  115  15/41  R  6/22 R-Mix  2:24:27  370  S & M NewlyWeds                                      119 1:37:10  120 47:17  7:37 Vancouver,BC    
  116  82/201 M 15/44 M4044  2:24:31  204 Dwayne Lotnick          300 32:29   85 1:08:50  21.7  167 1:41:19   49 43:12  6:58 Langley,BC      
  117  83/201 M  6/18 M4549  2:24:40  307 Larry Smith              48 23:57  120 1:10:50  21.1   86 1:34:47  169 49:53  8:02 North Vancouver,
  118  20/167 F  7/43 F2529  2:24:51  301 Megan Sheffer            43 23:41  156 1:12:53  20.5  105 1:36:34  141 48:17  7:47 Vancouver,BC    
  119  21/167 F  8/43 F2529  2:24:57  251 Danielle Murphy         135 26:27  153 1:12:38  20.5  136 1:39:05   94 45:52  7:23 Vancouver,BC    
  120  84/201 M 16/44 M4044  2:25:07  142 Rory Holland            224 29:23  151 1:12:35  20.5  175 1:41:58   48 43:09  6:57 West Vancouver,B
  121  85/201 M 14/23 M2529  2:25:13  248 Dale Muir               311 32:51   73 1:08:09  21.9  158 1:41:00   65 44:13  7:07 Squamish,BC     
  122  86/201 M 13/33 M3539  2:25:23  114 Jamie Goderis           185 28:14  140 1:11:56  20.7  144 1:40:10   81 45:13  7:17 Surrey,BC       
  123  87/201 M 17/44 M4044  2:25:26  208 Lukas Lundin             94 25:22  188 1:14:49  19.9  145 1:40:11   83 45:15  7:17 Vancouver,BC    
  124  88/201 M 28/47 M3034  2:25:37   30 Jason Bishop            171 27:49   94 1:09:10  21.6  112 1:36:59  150 48:38  7:50 New Westminster,
  125  89/201 M 29/47 M3034  2:25:44  465 Gavin Wood              216 29:13  126 1:11:01  21.0  147 1:40:14   87 45:30  7:20 Vancouver,BC    
  126  22/167 F  5/18 F2024  2:25:49   98 Tiffany Fenton           57 24:23  107 1:10:11  21.2   85 1:34:34  197 51:15  8:15 Garibaldi Highln,
  127  90/201 M 30/47 M3034  2:26:15  261 Stephen O'Keefe         119 26:01  147 1:12:22  20.6  131 1:38:23  133 47:52  7:43 New Westminster,
  128  91/201 M  7/18 M4549  2:26:31   83 Ian Dunn                176 27:59  174 1:14:09  20.1  179 1:42:08   69 44:23  7:09 Richmond,BC     
  129  92/201 M 18/44 M4044  2:26:59   16 Jim Balsillie           281 31:30   83 1:08:43  21.7  146 1:40:13  109 46:46  7:32 Kitchener,ON    
  130  93/201 M 19/44 M4044  2:27:04  284 Paul Read               146 26:46  191 1:14:52  19.9  170 1:41:38   85 45:26  7:19 Richmond,Surrey,
  131  16/41  R  7/22 R-Mix  2:27:12  371  SAD                    127 26:20  148 1:12:24  20.6  133 1:38:44  144 48:28  7:48 Garibaldi Highln,
  132  94/201 M 31/47 M3034  2:27:16  462 Nicholas Winfield       180 28:03  141 1:11:58  20.7  143 1:40:01  119 47:15  7:37 Vancouver,BC    
  133  95/201 M 32/47 M3034  2:27:21  184 Warren Laird            341 35:29   55 1:07:26  22.1  190 1:42:55   70 44:26  7:10 North Vancouver,
  134  96/201 M 20/44 M4044  2:27:26  225 Brian McCoy             218 29:16   51 1:07:01  22.3   96 1:36:17  195 51:09  8:14 Vancouver,BC    
  135  97/201 M 21/44 M4044  2:27:39  181 Brian Kroeker            64 24:38   87 1:08:58  21.6   70 1:33:36  251 54:03  8:42 North Vancouver,
  136  23/167 F  9/43 F2529  2:27:48  288 Nadine Robert            99 25:32  139 1:11:54  20.7  123 1:37:26  181 50:22  8:07 Vancouver,BC    
  137  98/201 M 33/47 M3034  2:27:53   87 Ben Eksteen             265 30:53  144 1:12:04  20.7  191 1:42:57   77 44:56  7:14 Squamish,BC     
  138  99/201 M  1/9  M5054  2:27:55  459 Ray Wilburn             249 30:19  108 1:10:16  21.2  153 1:40:35  122 47:20  7:38 Squamish,BC     
  139 100/201 M 34/47 M3034  2:28:02  148 Tim Houtsma              97 25:25  133 1:11:36  20.8  114 1:37:01  192 51:01  8:13 Vancouver,BC    
  140 101/201 M 22/44 M4044  2:28:15  463 John Chen               244 30:11  154 1:12:43  20.5  189 1:42:54   84 45:21  7:18 Vancouver,BC    
  141 102/201 M 15/23 M2529  2:28:17   65 Andrew Corcoran         195 28:32  180 1:14:31  20.0  193 1:43:03   82 45:14  7:17 North Vancouver,
  142  24/167 F  6/18 F2024  2:28:19  346 Laurie Voroney          103 25:35  127 1:11:01  21.0  106 1:36:36  208 51:43  8:20 Victoria,BC     
  143 103/201 M 14/33 M3539  2:28:39  136 Scott Karsen            309 32:49   76 1:08:16  21.8  161 1:41:05  128 47:34  7:40 Richmond,BC     
  144 104/201 M 15/33 M3539  2:28:42  146 Greg Hopps              159 27:16   93 1:09:09  21.6  100 1:36:25  217 52:17  8:25 Delta,BC        
  145  25/167 F  9/50 F3034  2:29:13  164 Kim Johnston            100 25:32  169 1:13:44  20.2  137 1:39:16  172 49:57  8:03 Kamloops,BC     
  146 105/201 M 16/23 M2529  2:29:20  274 Greg Pitre              271 31:14  112 1:10:33  21.1  174 1:41:47  126 47:33  7:40 Victoria,BC     
  147  17/41  R  8/22 R-Mix  2:29:20  390  Buster,Colin,Sandra     84 25:09  204 1:15:10  19.8  149 1:40:19  158 49:01  7:54 Squamish,BC     
  148 106/201 M  2/9  M5054  2:29:30  111 Frank Gigliotti         181 28:05  158 1:13:02  20.4  162 1:41:07  142 48:23  7:48 Vancouver,BC    
  149  18/41  R  9/22 R-Mix  2:29:33  355  Eagles Nest            229 29:30   31 1:05:31  22.8   88 1:35:01  260 54:32  8:47 Squamish,BC     
  150  19/41  R  4/9  R-Fem  2:29:47  367  Pansies                148 26:49  119 1:10:45  21.1  125 1:37:34  216 52:13  8:25 Vancouver,BC    
  151  26/167 F 10/43 F2529  2:29:53  153 Kim Hurley              134 26:25  125 1:10:58  21.0  122 1:37:23  219 52:30  8:27 Vancouver,BC    
  152 107/201 M 23/44 M4044  2:29:58  210 Ian MacInnis            113 25:51  229 1:16:47  19.4  185 1:42:38  123 47:20  7:38 North Vancouver,
  153 108/201 M 16/33 M3539  2:30:04  275 Greg Pitt               200 28:39  134 1:11:37  20.8  148 1:40:16  165 49:48  8:01 Garibaldi Highln,
  154  20/41  R 10/22 R-Mix  2:30:05  361  Lorna & Rick           172 27:51  190 1:14:51  19.9  187 1:42:42  124 47:23  7:38 North Vancouver,
  155  27/167 F 11/43 F2529  2:30:34  180 Tammy Kovaluk           157 27:13  166 1:13:19  20.3  151 1:40:32  174 50:02  8:04 Abbotsford,BC   
  156 109/201 M 35/47 M3034  2:30:35   20 Yvon Beaudoin           191 28:29   66 1:07:56  22.0  101 1:36:25  255 54:10  8:44 Burnaby,BC      
  157  28/167 F 10/50 F3034  2:30:37  350 Laura Weatherly         112 25:49  192 1:14:52  19.9  154 1:40:41  171 49:56  8:03 Vancouver,BC    
  158  21/41  R 11/22 R-Mix  2:30:48  352  A.D.Autotechs          252 30:21   16 1:03:59  23.3   83 1:34:20  292 56:28  9:06 Garibaldi Highln,
  159 110/201 M 24/44 M4044  2:31:10  312 Craig Stevenson         161 27:20  177 1:14:26  20.0  173 1:41:46  163 49:24  7:58 Surrey,BC       
  160  29/167 F  2/22 F3539  2:31:12  343 Tammi Vincent           194 28:31  208 1:15:34  19.7  206 1:44:05  116 47:07  7:35 Surrey,BC       
  161 111/201 M  7/10 M2024  2:31:15  452 Carl Wellwood           128 26:20  200 1:15:04  19.9  169 1:41:24  167 49:51  8:02 Burnaby,BC      
  162 112/201 M  1/4  M6064  2:31:18  100 John Fettes             248 30:18  111 1:10:23  21.2  155 1:40:41  186 50:37  8:09 North Vancouver,
  163 113/201 M  8/10 M2024  2:31:23  325 James Thesiger           34 23:09  170 1:13:51  20.2  113 1:37:00  258 54:23  8:46 Delta,BC        
  164  30/167 F 12/43 F2529  2:31:32  109 Heather Gerth            83 25:08  213 1:15:44  19.7  156 1:40:52  188 50:40  8:10 Vancouver,BC    
  165  31/167 F 11/50 F3034  2:32:12  347 Sherri Wade             192 28:29  179 1:14:28  20.0  192 1:42:57  162 49:15  7:56 Nanaimo,BC      
  166 114/201 M 25/44 M4044  2:32:15   48 Mike Cates              126 26:19  182 1:14:33  20.0  157 1:40:52  200 51:23  8:17 Vancouver,BC    
  167 115/201 M 26/44 M4044  2:32:35  188 Mark LeBlanc             95 25:22  205 1:15:10  19.8  152 1:40:32  211 52:03  8:23 Port Coquitlam,B
  168  32/167 F 12/50 F3034  2:32:39   45 Teryl Cardoso            89 25:11  143 1:12:02  20.7  120 1:37:13  279 55:26  8:56 Coquitlam,BC    
  169 116/201 M  8/18 M4549  2:32:45  245 Paul Moraze             164 27:34  195 1:14:56  19.9  182 1:42:30  177 50:15  8:06 Port Moody,BC   
  170 117/201 M 17/33 M3539  2:32:49  474 Mike O'Beirne           129 26:20  194 1:14:54  19.9  163 1:41:14  206 51:35  8:19 North Vancouver,
  171 118/201 M 36/47 M3034  2:32:50  168 Robert Joseph           123 26:12  202 1:15:09  19.8  168 1:41:21  202 51:29  8:18 Vancouver,BC    
  172 119/201 M 27/44 M4044  2:32:52  129 Bob Hautala             236 29:52  227 1:16:43  19.4  225 1:46:35  100 46:17  7:27 Coquitlam,BC    
  173 120/201 M 18/33 M3539  2:32:56  191 Pierre Leroux            61 24:33  203 1:15:09  19.8  140 1:39:42  232 53:14  8:35 North Vancouver,
  174 121/201 M 19/33 M3539  2:33:02  246 Guy Morum                66 24:42  164 1:13:14  20.4  129 1:37:56  268 55:06  8:53 Squamish,BC     
  175  33/167 F 13/50 F3034  2:33:07  455 Andrea Wiebe            109 25:46  241 1:17:28  19.3  195 1:43:14  170 49:53  8:02 North Vancouver,
  176  34/167 F  1/14 F4044  2:33:11   78 Kate Dilworth           217 29:15  230 1:16:49  19.4  222 1:46:04  117 47:07  7:35 Vancouver,BC    
  177  22/41  R 12/22 R-Mix  2:33:15  377  Squamish Pirates Supe  167 27:44  136 1:11:46  20.8  139 1:39:30  243 53:45  8:40 Garibaldi Highln,
  178  35/167 F 14/50 F3034  2:33:19  268 Dallas Parsons           78 25:05  155 1:12:43  20.5  127 1:37:48  281 55:31  8:57 Vancouver,BC    
  179  36/167 F  3/22 F3539  2:33:22  344 Yvonne Visser           210 28:59  209 1:15:38  19.7  207 1:44:37  153 48:45  7:51 Nanaimo,BC      
  180  37/167 F 13/43 F2529  2:33:31  175 Melanie Kassel          245 30:12  269 1:19:08  18.8  261 1:49:20   63 44:11  7:07 Chilliwack,BC   
  181 122/201 M 28/44 M4044  2:33:34  107 Jeff Gallimore          238 29:57  152 1:12:35  20.5  183 1:42:32  193 51:02  8:13 Nanaimo,BC      
  182  38/167 F  7/18 F2024  2:33:41  214 Sarah Manske            114 25:51  247 1:18:02  19.1  204 1:43:53  166 49:48  8:01 Burnaby,BC      
  183 123/201 M  3/9  M5054  2:33:52  213 Ron Manley              222 29:20  210 1:15:39  19.7  212 1:44:59  155 48:53  7:53 West Vancouver,B
  184 124/201 M  9/10 M2024  2:33:58  457 Thomas Wieckowski        73 24:56  138 1:11:48  20.8  109 1:36:44  306 57:14  9:13 New Westminster,
  185  23/41  R  7/10 R-Male 2:34:03  376  Squamish Lions         260 30:33  193 1:14:53  19.9  218 1:45:26  149 48:37  7:50 Garibaldi Highln,
  186 125/201 M 20/33 M3539  2:34:06  333 Chris Townsend          330 34:21  175 1:14:12  20.1  247 1:48:33   89 45:33  7:20 Coquitlam,BC    
  187 126/201 M 21/33 M3539  2:34:12  108 Jose Gavina             313 33:00  160 1:13:04  20.4  223 1:46:04  137 48:08  7:45 North Vancouver,
  188  39/167 F 15/50 F3034  2:34:26  473 Anne-Marie Lavallee     142 26:35  178 1:14:27  20.0  160 1:41:02  235 53:24  8:36 North Vancouver,
  189  40/167 F  1/5  F5054  2:34:32  124 Laura Hall              168 27:44  216 1:15:52  19.7  200 1:43:36  191 50:56  8:12 Vancouver,BC    
  190 127/201 M 22/33 M3539  2:34:43  326 Chi-Teck Ting           233 29:36   49 1:06:53  22.3  104 1:36:29  319 58:14  9:23 Squamish,BC     
  191  41/167 F  1/12 F4549  2:34:58  140 Barb Hillier            225 29:25  224 1:16:37  19.5  221 1:46:02  156 48:56  7:53 Delta,BC        
  192 128/201 M 37/47 M3034  2:35:03  155 Keith Iwasaki                                         199 1:43:30  205 51:33  8:18 Vancouver,BC    
  193  42/167 F  8/18 F2024  2:35:12   12 Sandra Ashmore          209 28:54  198 1:14:58  19.9  203 1:43:52  199 51:20  8:16 North Vancouver,
  194 129/201 M 29/44 M4044  2:35:14  298 Jamie Scoular           152 27:00  199 1:15:01  19.9  176 1:42:01  231 53:13  8:34 Maple Ridge,BC  
  195  43/167 F  4/22 F3539  2:35:14  173 Dawn Kardos             230 29:31  161 1:13:07  20.4  186 1:42:38  220 52:36  8:28 Courtenay,BC    
  196  24/41  R 13/22 R-Mix  2:35:25  375  Squamish Fire Rescue   395 42:24  121 1:10:52  21.0  295 1:53:16   34 42:09  6:47 Squamish,BC     
  197  44/167 F  5/22 F3539  2:35:36  156 Sherri Iwaschuk         206 28:50  128 1:11:10  21.0  142 1:40:00  283 55:36  8:57 Vancouver,BC    
  198 130/201 M 38/47 M3034  2:35:42  349 Michiya Watanabe         91 25:16  237 1:17:17  19.3  184 1:42:33  229 53:09  8:34 Vancouver,BC    
  199  45/167 F 16/50 F3034  2:35:45  235 Kim McMullen            282 31:31  249 1:18:06  19.1  264 1:49:37   97 46:08  7:26 Squamish,BC     
  200  25/41  R  8/10 R-Male 2:35:46  369  PowerSmart RetroFits   361 37:05  100 1:09:33  21.4  226 1:46:38  160 49:08  7:55 West Vancouver,B
  201  46/167 F 14/43 F2529  2:35:46  281 Jennifer Purves         302 32:35                                                  North Vancouver,
  202 131/201 M 30/44 M4044  2:35:50  306 Martin Skertchly        352 36:14  129 1:11:12  20.9  234 1:47:26  143 48:24  7:48 Delta,BC        
  203 132/201 M 17/23 M2529  2:36:06  313 Tim Stewart             348 36:02  157 1:13:00  20.4  253 1:49:02  115 47:04  7:35 North Vancouver,
  204  26/41  R  9/10 R-Male 2:36:17  354  Burn Outs              332 34:26  168 1:13:39  20.2  240 1:48:05  139 48:12  7:46 Garibaldi Highln,
  205 133/201 M  2/4  M6064  2:36:26  231 Don McIntosh            219 29:17  171 1:13:54  20.2  194 1:43:11  233 53:15  8:35 Port Coquitlam,B
  206  47/167 F  9/18 F2024  2:36:28  267 Charlene Parrott        106 25:38  211 1:15:40  19.7  164 1:41:18  269 55:10  8:53 Coquitlam,BC    
  207 134/201 M 39/47 M3034  2:36:35  292 Kyle Robertson          136 26:29  172 1:14:02  20.1  150 1:40:31  290 56:04  9:02 Vancouver,BC    
  208  48/167 F  2/12 F4549  2:36:40  149 Celia Hoy               115 25:52  240 1:17:24  19.3  196 1:43:16  236 53:24  8:36 Kamloops,BC     
  209 135/201 M  4/9  M5054  2:36:42  276 Brian Pollock            96 25:23  231 1:16:53  19.4  180 1:42:16  259 54:26  8:46 Garibaldi Highln,
  210  49/167 F 15/43 F2529  2:36:56  117 Stacy Gorkoff           189 28:27  299 1:21:26  18.3  271 1:49:53  114 47:03  7:35 Vancouver,BC    
  211 136/201 M  5/9  M5054  2:37:05   68 Richard Cudmore         247 30:17  162 1:13:09  20.4  198 1:43:26  240 53:39  8:39 Squamish,BC     
  212  27/41  R 14/22 R-Mix  2:37:15  359  Hexapedagogues         187 28:24  167 1:13:37  20.3  177 1:42:01  277 55:14  8:54 Squamish,BC     
  213 137/201 M 18/23 M2529  2:37:18  282 Neil Purves             285 31:41  214 1:15:46  19.7  235 1:47:27  168 49:51  8:02 North Vancouver,
  214  50/167 F  2/14 F4044  2:37:24  302 Tracey Shelley          110 25:47  265 1:19:00  18.9  208 1:44:47  221 52:37  8:29 Delta,BC        
  215 138/201 M 40/47 M3034  2:37:28    8 Ryan Allderman          299 32:28  239 1:17:22  19.3  270 1:49:50  130 47:38  7:40 Vancouver,BC    
  216 139/201 M  3/3  M1519  2:37:29   77 David DeRusha           257 30:27  183 1:14:34  20.0  213 1:45:01  218 52:28  8:27 Squamish,BC     
  217 140/201 M 19/23 M2529  2:37:40    6 Robert Airey            258 30:27  232 1:16:58  19.4  233 1:47:25  178 50:15  8:06 Vancouver,BC    
  218  51/167 F 17/50 F3034  2:37:40   97 Heather Feeney          124 26:12  187 1:14:48  19.9  159 1:41:00  296 56:40  9:08 Vancouver,BC    
  219 141/201 M 31/44 M4044  2:38:13  206 Leandro Lucente         125 26:18  292 1:20:46  18.5  230 1:47:04  196 51:09  8:14 Vancouver,BC    
  220  52/167 F 16/43 F2529  2:38:20   38 Tina Brullo             267 31:01  236 1:17:16  19.3  244 1:48:17  175 50:03  8:04 Vancouver,BC    
  221 142/201 M 23/33 M3539  2:38:42   55 Malcolm Chrystal        211 29:02  270 1:19:11  18.8  242 1:48:13  184 50:29  8:08 Vancouver,BC    
  222  53/167 F 17/43 F2529  2:38:42  253 Sherrie Myers           151 26:57  254 1:18:23  19.0  216 1:45:20  234 53:22  8:36 Vancouver,BC    
  223  54/167 F  3/12 F4549  2:38:47   42 Aenea Cameron           369 37:21  189 1:14:49  19.9  284 1:52:10  105 46:37  7:31 Squamish,BC     
  224  55/167 F  1/2  F5559  2:38:54   81 Paula Dryden             79 25:05  258 1:18:37  19.0  202 1:43:42  274 55:12  8:54 Comox,BC        
  225 143/201 M  3/8  M5559  2:38:56  102 Doug Fox                169 27:47  196 1:14:56  19.9  188 1:42:43  291 56:13  9:03 Whistler,BC     
  226  56/167 F  6/22 F3539  2:38:57  339 Joanne Turnbull         320 33:15  212 1:15:42  19.7  251 1:48:57  173 50:00  8:03 Squamish,BC     
  227  57/167 F 18/43 F2529  2:39:11  309 Katrina Sovio           223 29:22  207 1:15:32  19.7  210 1:44:54  257 54:17  8:45 Vancouver,BC    
  228 144/201 M 32/44 M4044  2:39:17   31 John Blackmer           117 25:55  221 1:16:10  19.6  178 1:42:05  303 57:12  9:13 Vancouver,BC    
  229 145/201 M  4/8  M5559  2:39:26  147 Peter Hotston           254 30:25  163 1:13:13  20.4  201 1:43:38  285 55:48  8:59 Garibaldi Highln,
  230 146/201 M 33/44 M4044  2:39:27  269 Scott Peberdy           241 30:03  313 1:22:33  18.1  287 1:52:36  111 46:51  7:33 Vancouver,BC    
  231 147/201 M 20/23 M2529  2:39:45  294 Michael Ryan            315 33:02  267 1:19:06  18.9  283 1:52:08  129 47:37  7:40 Vancouver,BC    
  232  58/167 F 18/50 F3034  2:39:54  471 Marla Zucht             338 35:21  218 1:15:57  19.6  280 1:51:18  148 48:36  7:50 Whistler,BC     
  233  28/41  R 15/22 R-Mix  2:39:55  384  Tri-Hards              312 32:57  246 1:17:51  19.2  277 1:50:48  159 49:07  7:55 Squamish,BC     
  234 148/201 M  9/18 M4549  2:40:01   64 Steve Cooper            207 28:51  255 1:18:24  19.0  231 1:47:15  223 52:46  8:30 North Vancouver,
  235  59/167 F 19/43 F2529  2:40:15  262 Belinda O'Loan          266 30:53  268 1:19:07  18.8  272 1:50:00  179 50:15  8:06 Richmond,BC     
  236  60/167 F 20/43 F2529  2:40:17  131 Helen Haworth           155 27:09  206 1:15:15  19.8  181 1:42:24  313 57:53  9:19 Vancouver,BC    
  237  61/167 F 21/43 F2529  2:40:22  249 Jackie Muir             268 31:05  260 1:18:42  18.9  269 1:49:47  185 50:35  8:09 Vancouver,BC    
  238 149/201 M  5/8  M5559  2:40:31  297 Richard Scott           250 30:20  305 1:21:56  18.2  285 1:52:16  140 48:15  7:46 North Vancouver,
  239 150/201 M 34/44 M4044  2:40:35  320 Kevin Sweetman          269 31:07  215 1:15:51  19.7  229 1:46:58  239 53:37  8:38 Penticton,BC    
  240  29/41  R 16/22 R-Mix  2:40:37  368  Powered by BDO         182 28:10  122 1:10:53  21.0  134 1:39:03  353 61:34  9:55 Whistler,BC     
  241  62/167 F 22/43 F2529  2:40:42  278 Marie-Anne Prevost      237 29:55  271 1:19:15  18.8  256 1:49:10  204 51:32  8:18 Whistler,BC     
  242  63/167 F 23/43 F2529  2:41:22   27 Karen Binder            255 30:26  220 1:16:08  19.6  224 1:46:34  262 54:48  8:50 North Vancouver,
  243 151/201 M 35/44 M4044  2:41:28  169 Kim Jow                 374 37:48  251 1:18:14  19.1  318 1:56:02   86 45:26  7:19 West Vancouver,B
  244  64/167 F  7/22 F3539  2:41:32  289 Amanda Roberts          213 29:04  243 1:17:37  19.2  228 1:46:41  263 54:51  8:50 Maple Ridge,BC  
  245  65/167 F 24/43 F2529  2:41:36   43 Andrea Camp             214 29:05  197 1:14:57  19.9  205 1:44:02  310 57:34  9:16 Vancouver,BC    
  246  66/167 F 10/18 F2024  2:41:50  119 Kendra Greenslade       111 25:48  165 1:13:16  20.4  135 1:39:04  364 62:46 10:07 West Vancouver,B
  247  67/167 F 25/43 F2529  2:41:56   54 Janet Christie          147 26:48  250 1:18:07  19.1  211 1:44:55  302 57:01  9:11 Vancouver,BC    
  248 152/201 M 36/44 M4044  2:42:06  203 Peter Loss              199 28:37  284 1:20:20  18.6  252 1:48:57  230 53:09  8:34 Coquitlam,BC    
  249 153/201 M  6/8  M5559  2:42:11   41 Petr Calder             232 29:33  263 1:18:53  18.9  246 1:48:26  244 53:45  8:40 West Vancouver,B
  250  68/167 F  8/22 F3539  2:42:12  112 Michele Glen            324 33:40  253 1:18:19  19.0  282 1:51:59  176 50:13  8:05 Vancouver,BC    
  251  69/167 F 19/50 F3034  2:42:24  138 Brandi Higgins          163 27:32  244 1:17:40  19.2  215 1:45:12  304 57:12  9:13 Whistler,BC     
  252  70/167 F  9/22 F3539  2:42:42   33 Jodi Boates             212 29:03  290 1:20:40  18.5  266 1:49:43  225 52:59  8:32 North Vancouver,
  253 154/201 M 41/47 M3034  2:42:55  318 Shane Styles            344 35:42  242 1:17:30  19.2  292 1:53:12  164 49:43  8:01 Vancouver,BC    
  254  71/167 F  3/14 F4044  2:43:14   74 Diane Dasler            242 30:03  274 1:19:36  18.7  265 1:49:39  238 53:35  8:38 Delta,BC        
  255  72/167 F 11/18 F2024  2:43:15  308 Jenica Sorban           203 28:47  219 1:16:00  19.6  209 1:44:47  322 58:28  9:25 Brackendale,BC  
  256  73/167 F 20/50 F3034  2:43:16  134 Michelle Heilgenpahl-C  221 29:18  276 1:19:48  18.7  255 1:49:06  256 54:10  8:44 Pitt Meadows,BC 
  257  74/167 F 21/50 F3034  2:43:21   80 Dena Doolan             246 30:15  294 1:20:54  18.4  278 1:51:09  215 52:12  8:25 Delta,BC        
  258  75/167 F 26/43 F2529  2:43:34  323 Janet Tecklenborg       150 26:54  176 1:14:24  20.0  165 1:41:18  358 62:16 10:02 Campbell River,B
  259  76/167 F 12/18 F2024  2:43:38   32 Sally Blair             227 29:27  235 1:17:12  19.3  227 1:46:39  301 56:59  9:11 North Vancouver,
  260 155/201 M 37/44 M4044  2:44:04  293 Jim Rupert              293 32:02  234 1:17:01  19.4  254 1:49:03  266 55:01  8:52 Vancouver,BC    
  261  77/167 F 22/50 F3034  2:44:06  162 Leanne Johnson          228 29:29  222 1:16:27  19.5  219 1:45:56  317 58:10  9:22 Vancouver,BC    
  262  78/167 F  4/12 F4549  2:44:15   37 Anne Bracey             291 31:53  238 1:17:21  19.3  258 1:49:14  267 55:01  8:52 Garibaldi Highln,
  263 156/201 M 24/33 M3539  2:44:19  110 David Gibbs             290 31:51  217 1:15:56  19.6  238 1:47:47  293 56:32  9:06 Burnaby,BC      
  264 157/201 M 25/33 M3539  2:44:23  171 Fred Kamperman          220 29:17  272 1:19:22  18.8  249 1:48:39  284 55:44  8:59 Vancouver,BC    
  265  79/167 F 13/18 F2024  2:44:25  127 Elsa Hansen             174 27:52  291 1:20:45  18.5  248 1:48:37  286 55:48  8:59 Vancouver,BC    
  266  80/167 F 14/18 F2024  2:44:27  483 Lisa Helmer                                           298 1:54:04  182 50:23  8:07 Whistler,BC     
  267  81/167 F 27/43 F2529  2:44:55   40 Tara-Leigh Cain         162 27:20  280 1:20:07  18.6  236 1:47:27  309 57:28  9:15 Vancouver,BC    
  268  82/167 F 23/50 F3034  2:44:56  317 Kimberley Styles        261 30:42  261 1:18:43  18.9  262 1:49:25  282 55:31  8:57 Garibaldi Highln,
  269 158/201 M 26/33 M3539  2:45:02  469 W. Paul Wright          292 31:54  295 1:21:12  18.4  289 1:53:06  210 51:56  8:22 Sechelt,BC      
  270  83/167 F 24/50 F3034  2:45:04   21 Barb Belcher            385 39:31  184 1:14:38  20.0  302 1:54:09  190 50:55  8:12 North Vancouver,
  271  84/167 F 25/50 F3034  2:45:12  135 Marilyn Hellier         276 31:19  257 1:18:25  19.0  267 1:49:44  280 55:28  8:56 Whistler,BC     
  272  85/167 F 26/50 F3034  2:45:14   94 Stacey Fairweather Zed  226 29:26  288 1:20:37  18.5  273 1:50:03  271 55:11  8:53 Vancouver,BC    
  273 159/201 M 38/44 M4044  2:45:38  286 John Reay               262 30:45  323 1:23:17  17.9  297 1:54:02  207 51:36  8:19 Vancouver,BC    
  274 160/201 M 10/18 M4549  2:45:42  337 Randy Trerise           263 30:51  123 1:10:54  21.0  172 1:41:45  370 63:57 10:18 Grand Forks,BC  
  275  86/167 F 27/50 F3034  2:45:53  272 Andrea Perrino          328 34:06  266 1:19:00  18.9  290 1:53:06  224 52:47  8:30 Ottawa,ON       
  276  87/167 F 28/50 F3034  2:46:04  315 Sandra Stuart           251 30:20  262 1:18:51  18.9  257 1:49:11  300 56:53  9:10 Vancouver,BC    
  277 161/201 M  6/9  M5054  2:46:14  190 Pierre Leichner         188 28:26  225 1:16:40  19.5  214 1:45:06  351 61:08  9:51 Vancouver,BC    
  278  88/167 F  2/5  F5054  2:46:26  458 Helle Wilburn           322 33:19  185 1:14:43  20.0  239 1:48:02  321 58:24  9:24 Squamish,BC     
  279  89/167 F 15/18 F2024  2:46:38  151 Jackie Hudson           317 33:11  314 1:22:39  18.0  313 1:55:50  189 50:48  8:11 Vancouver,BC    
  280  90/167 F 28/43 F2529  2:46:42  296 Nadia Schmiedt          318 33:13  317 1:22:52  18.0  320 1:56:05  187 50:37  8:09 Vancouver,BC    
  281  91/167 F 10/22 F3539  2:46:48  222  Lisa Mather            264 30:51  322 1:23:14  17.9  300 1:54:05  222 52:43  8:30 Port Coquitlam,B
  282  92/167 F 29/50 F3034  2:47:03  177 Melanie Klapstock       132 26:24  264 1:18:59  18.9  217 1:45:23  355 61:40  9:56 Maple Ridge,BC  
  283  93/167 F 29/43 F2529  2:47:07   85 Kerri Edison            166 27:42  275 1:19:47  18.7  237 1:47:29  336 59:38  9:36 Winnipeg,MB     
  284 162/201 M 27/33 M3539  2:47:09  178 Lawrence Klein          342 35:36  245 1:17:49  19.2  296 1:53:25  242 53:44  8:39 Squamish,BC     
  285  94/167 F  4/14 F4044  2:47:49  242 Barbara Mingo                                         326 1:56:25  201 51:24  8:17 Vancouver,BC    
  286 163/201 M 42/47 M3034  2:47:50   57 Chris Clibbon           153 27:02  319 1:23:05  17.9  274 1:50:07  312 57:43  9:18 Vancouver,BC    
  287 164/201 M 39/44 M4044  2:47:52  472 David Robertson         283 31:40  310 1:22:25  18.1  301 1:54:05  245 53:47  8:40 Burnaby,BC      
  288  95/167 F 11/22 F3539  2:47:57  165 Nancy Johnston          137 26:29  293 1:20:50  18.4  232 1:47:19  344 60:38  9:46 Whistler,BC     
  289 165/201 M 11/18 M4549  2:48:03   18 Nigel Barrett           279 31:21  277 1:19:55  18.7  279 1:51:16  297 56:47  9:09 Surrey,BC       
  290 166/201 M 40/44 M4044  2:48:17  305 Dave Simcox             201 28:39  350 1:27:30  17.0  321 1:56:09  214 52:08  8:24 North Vancouver,
  291  96/167 F 12/22 F3539  2:48:21  157 Carmen Jackson          349 36:02  285 1:20:27  18.5  327 1:56:29  209 51:52  8:21 Point Roberts,WA
  292 167/201 M 28/33 M3539  2:48:24  334 Paul Townsend           323 33:38  273 1:19:35  18.7  294 1:53:13  272 55:11  8:53 Coquitlam,BC    
  293 168/201 M 41/44 M4044  2:48:37  116 Ronald Gordon           357 36:28  252 1:18:14  19.1  306 1:54:42  248 53:55  8:41 Port Moody,BC   
  294 169/201 M 21/23 M2529  2:48:55   95 Steve Fecho             372 37:34  145 1:12:10  20.7  268 1:49:44  330 59:11  9:32 Vancouver,BC    
  295 170/201 M  7/8  M5559  2:49:02  227 Cam McCullough          274 31:16  332 1:24:41  17.6  316 1:55:57  227 53:05  8:33 Whistler,BC     
  296  97/167 F  1/1  F6064  2:49:38  265 Mae Palm                294 32:04  326 1:23:54  17.8  317 1:55:58  241 53:40  8:39 Garibaldi Highln,
  297  30/41  R 10/10 R-Male 2:49:40  378  Squamish Smoke Eaters  402 45:57  186 1:14:43  20.0  345 2:00:40  157 49:00  7:54 Squamish,BC     
  298  98/167 F 30/50 F3034  2:49:50  476 Marie-Claude Neron      301 32:33  233 1:16:58  19.4  263 1:49:31  341 60:19  9:43 Squamish,BC     
  299 171/201 M 43/47 M3034  2:49:58  240 Jas Michalski           310 32:49  296 1:21:20  18.3  303 1:54:09  287 55:49  8:59 Garibaldi Highln,
  300 172/201 M 12/18 M4549  2:50:16  250 Bob Munro               156 27:11  308 1:22:07  18.2  260 1:49:18  348 60:58  9:49 Richmond,BC     
  301  99/167 F 30/43 F2529  2:50:21  329 Kelly Toews             239 29:59  338 1:26:16  17.3  323 1:56:15  252 54:06  8:43 Vancouver,BC    
  302 100/167 F 31/43 F2529  2:50:22  207 Janna Lunam             243 30:08  337 1:26:07  17.3  324 1:56:15  253 54:07  8:43 Vancouver,BC    
  303 101/167 F 13/22 F3539  2:50:25   39 Vicky Bungay            306 32:44  328 1:24:14  17.7  332 1:56:58  237 53:27  8:37 Vancouver,BC    
  304 102/167 F 32/43 F2529  2:50:46  215 Alison Marchant         304 32:42  286 1:20:27  18.5  291 1:53:09  311 57:37  9:17 West Vancouver,B
  305 103/167 F 31/50 F3034  2:50:47  182 Jennifer Krueckl        204 28:47  346 1:27:09  17.1  315 1:55:56  264 54:51  8:50 Calgary,AB      
  306 104/167 F  5/14 F4044  2:51:20  241 Susan Miller            205 28:48  347 1:27:14  17.1  319 1:56:02  278 55:18  8:54 Ladysmith,BC    
  307 173/201 M 44/47 M3034  2:51:25  183 Calvin Kuo              253 30:22  306 1:21:57  18.2  286 1:52:19  328 59:06  9:31 Richmond,BC     
  308 174/201 M 13/18 M4549  2:51:27  300 Brian Shale             231 29:32  259 1:18:37  19.0  241 1:48:09  367 63:18 10:12 Coquitlam,BC    
  309 175/201 M 14/18 M4549  2:51:37   63 Rob Cooper              363 37:08  289 1:20:38  18.5  334 1:57:46  246 53:51  8:40 Vancouver,BC    
  310 105/167 F 33/43 F2529  2:51:38   51 Krista Charke            39 23:35  311 1:22:26  18.1  220 1:46:01  379 65:37 10:34 Vancouver,BC    
  311 176/201 M 29/33 M3539  2:52:02   91 Del Escott              376 38:08  248 1:18:04  19.1  322 1:56:12  288 55:50  9:00 Squamish,BC     
  312 177/201 M 42/44 M4044  2:52:03  342 Alex Vincent            272 31:14  282 1:20:11  18.6  281 1:51:25  345 60:38  9:46 Calgary,AB      
  313 178/201 M 15/18 M4549  2:52:31  254 Mike Nelson             377 38:13  181 1:14:31  20.0  288 1:52:44  339 59:47  9:38 Garibaldi Highln,
  314 179/201 M 30/33 M3539  2:52:35  279 Timothy Prior           277 31:19  321 1:23:09  17.9  304 1:54:28  316 58:07  9:22 Richmond,BC     
  315 106/167 F  6/14 F4044  2:52:40   66 Robin Cox               184 28:13  312 1:22:26  18.1  275 1:50:39  357 62:01  9:59 Vancouver,BC    
  316 107/167 F 32/50 F3034  2:52:47  263 Ann Oishi               154 27:08  309 1:22:09  18.2  259 1:49:17  368 63:30 10:14 Vancouver,BC    
  317 108/167 F 14/22 F3539  2:53:06   53 Linda Chow              334 34:42  279 1:20:05  18.6  307 1:54:47  320 58:19  9:24 Vancouver,BC    
  318  31/41  R 17/22 R-Mix  2:53:22  362  Medical Marvels        340 35:28  351 1:27:38  17.0  360 2:03:06  180 50:16  8:06 Squamish,BC     
  319 109/167 F 34/43 F2529  2:53:46  126 Jennifer Hancock        295 32:21  316 1:22:51  18.0  310 1:55:12  325 58:34  9:26 North Vancouver,
  320 110/167 F 33/50 F3034  2:53:48  170 Marisa Jubinville       296 32:23  331 1:24:33  17.6  330 1:56:56  299 56:52  9:10 Vancouver,BC    
  321 111/167 F 34/50 F3034  2:54:19  259 Nancy Normandin         343 35:38  283 1:20:13  18.6  314 1:55:51  323 58:28  9:25 Vancouver,BC    
  322 112/167 F 16/18 F2024  2:54:32  160 Elizabeth Johnsen        67 24:43  327 1:24:13  17.7  250 1:48:56  378 65:36 10:34 Seattle,WA      
  323 113/167 F 35/50 F3034  2:54:57   92 Bobbi-Jo Evans          284 31:40  343 1:26:45  17.2  338 1:58:25  294 56:32  9:06 Vancouver,BC    
  324 180/201 M 45/47 M3034  2:55:06  137 Lorne Herlin            331 34:23  357 1:28:38  16.8  359 2:03:01  212 52:05  8:23 Vancouver,BC    
  325 114/167 F 15/22 F3539  2:55:07  322 Yana Taylor             362 37:06  315 1:22:48  18.0  342 1:59:54  275 55:13  8:54 Victoria,BC     
  326 115/167 F 36/50 F3034  2:55:23  285 Janet Ready             314 33:01  333 1:25:07  17.5  335 1:58:08  307 57:15  9:13 Vancouver,BC    
  327 116/167 F  7/14 F4044  2:55:25  327 Ann Titford             198 28:35  339 1:26:24  17.3  308 1:54:59  342 60:26  9:44 Lake Errock,BC  
  328 117/167 F 35/43 F2529  2:55:38  152 Joanne Hughes           351 36:12  334 1:25:32  17.4  351 2:01:44  247 53:54  8:41 Vancouver,BC    
  329 118/167 F 36/43 F2529  2:55:43   86 Michele Edmison         337 35:03  303 1:21:54  18.2  331 1:56:57  326 58:46  9:28 Vancouver,BC    
  330 119/167 F 37/43 F2529  2:55:45  258 Amanda Niehaus          326 33:57  302 1:21:52  18.2  312 1:55:49  340 59:56  9:39 Burnaby,BC      
  331 181/201 M  1/2  M6569  2:55:47  128 David Harrison          386 39:37  226 1:16:41  19.4  325 1:56:18  332 59:29  9:35 Vancouver,BC    
  332  32/41  R 18/22 R-Mix  2:55:50  357  Go Joe Go              379 38:44  304 1:21:55  18.2  344 2:00:39  273 55:11  8:53 ,BC             
  333 182/201 M 10/10 M2024  2:55:56  104 Dan Fraser              256 30:26  366 1:30:44  16.4  350 2:01:10  261 54:46  8:49 Whistler,BC     
  334 120/167 F 37/50 F3034  2:55:59  224 Tara Mayne              354 36:17  335 1:25:43  17.4  353 2:02:00  250 53:59  8:42 Langley,BC      
  335 121/167 F  5/12 F4549  2:56:15   67 Annette Cramer          319 33:14  325 1:23:24  17.9  329 1:56:38  335 59:37  9:36 Vancouver,BC    
  336 122/167 F 38/43 F2529  2:56:21  161 Oona Johnsen             85 25:09  365 1:30:02  16.6  309 1:55:11  352 61:10  9:51 Seattle,WA      
  337  33/41  R  5/9  R-Fem  2:56:39  386  YBAC's                 390 40:26  228 1:16:43  19.4  333 1:57:09  333 59:30  9:35 Squamish,BC     
  338 183/201 M 16/18 M4549  2:57:04  132 Mike Healy              388 39:48  278 1:20:04  18.6  341 1:59:52  305 57:12  9:13 North Vancouver,
  339 184/201 M 17/18 M4549  2:57:16   29 Alexander Binz          360 36:48  297 1:21:24  18.3  337 1:58:12  327 59:04  9:31 Vancouver,BC    
  340 185/201 M 22/23 M2529  2:57:17  330 Lance Torgesen          367 37:15  256 1:18:24  19.0  311 1:55:39  354 61:38  9:56 Renton,WA       
  341 123/167 F 38/50 F3034  2:58:09  166 Shana Johnston          339 35:27  345 1:26:46  17.2  354 2:02:13  289 55:56  9:01 Vancouver,BC    
  342 124/167 F 39/50 F3034  2:58:59  260 Ann-Marie O'Keefe       358 36:36  330 1:24:19  17.7  347 2:00:55  315 58:04  9:21 New Westminster,
  343 125/167 F 16/22 F3539  2:59:28    4 Darien Adley            321 33:16  370 1:31:12  16.4  362 2:04:28  265 55:00  8:52 Garibaldi Highln,
  344 186/201 M  7/9  M5054  3:00:24  314 Dan Stiner              366 37:10  354 1:28:01  16.9  364 2:05:11  276 55:13  8:54 Squamish,BC     
  345 126/167 F 17/22 F3539  3:00:32   61 Jennifer Cook           298 32:27  362 1:29:32  16.7  352 2:01:59  324 58:33  9:26 Kamloops,BC     
  346  34/41  R 19/22 R-Mix  3:01:07  381  The Delayers           404 48:30  324 1:23:23  17.9  383 2:11:53  161 49:14  7:56 ,BC             
  347 127/167 F 40/50 F3034  3:01:21  270 Lynnette Penner         335 34:46  349 1:27:28  17.0  355 2:02:14  329 59:07  9:31 Vancouver,BC    
  348 187/201 M 43/44 M4044  3:01:23   71 Perry Danforth          347 36:00  329 1:24:17  17.7  343 2:00:17  349 61:06  9:50 Vancouver,BC    
  349 128/167 F 41/50 F3034  3:01:30  220 Keka Martin             371 37:25  358 1:28:55  16.8  368 2:06:20  270 55:10  8:53 Vancouver,BC    
  350 188/201 M 44/44 M4044  3:02:29  255 Paul Ng                 356 36:24  344 1:26:45  17.2  361 2:03:09  331 59:20  9:33 Vancouver,BC    
  351 189/201 M 46/47 M3034  3:03:18  345 Tobias Vlasblom         289 31:50  360 1:29:10  16.7  348 2:01:00  359 62:18 10:02 Vancouver,BC    
  352 129/167 F 18/22 F3539  3:03:22  122 Lianne Gulka            325 33:49  359 1:28:57  16.8  358 2:02:46  343 60:36  9:46 West Vancouver,B
  353 190/201 M 31/33 M3539  3:03:48  234 Rodger McLean           297 32:23  300 1:21:41  18.3  299 1:54:04  389 69:44 11:14 North Vancouver,
  354  35/41  R  6/9  R-Fem  3:04:44  356  First Timers           400 44:54  301 1:21:49  18.2  369 2:06:43  314 58:01  9:21 Garibaldi Highln,
  355 130/167 F  8/14 F4044  3:04:58   79 Terrie Dlugon           387 39:47  369 1:31:04  16.4  381 2:10:51  254 54:07  8:43 Vancouver,BC    
  356 131/167 F  6/12 F4549  3:04:59  150 Nancy Hoyles            240 30:00  363 1:29:38  16.6  339 1:59:38  376 65:21 10:32 Langley,BC      
  357 191/201 M  3/4  M6064  3:05:24   72 Rob Daniel              397 43:12  298 1:21:25  18.3  363 2:04:37  346 60:47  9:47 Vancouver,BC    
  358 132/167 F 19/22 F3539  3:05:35  244 Diane Mombourquette     234 29:39  356 1:28:31  16.8  336 1:58:10  383 67:25 10:51 Whistler,BC     
  359 133/167 F 42/50 F3034  3:06:22  336 Traci Treleaven         355 36:19  340 1:26:25  17.3  356 2:02:44  369 63:38 10:15 West Vancouver,B
  360 134/167 F  9/14 F4044  3:06:40   96 Pauline Fedder          305 32:43  355 1:28:23  16.9  349 2:01:06  377 65:34 10:34 Vancouver,BC    
  361 135/167 F 43/50 F3034  3:06:46  199 Karen Lirenman          327 34:01  342 1:26:39  17.2  346 2:00:40  380 66:06 10:39 Vancouver,BC    
  362 192/201 M 32/33 M3539  3:06:57  232 Jim McIntosh            359 36:39  320 1:23:07  17.9  340 1:59:46  381 67:11 10:49 Coquitlam,BC    
  363 136/167 F 44/50 F3034  3:07:07  167 Donna Jones             370 37:24  353 1:27:51  17.0  365 2:05:15  356 61:52  9:58 Squamish,BC     
  364 193/201 M  8/8  M5559  3:07:13   84 Derek Duvall            208 28:53  352 1:27:41  17.0  328 1:56:34  391 70:39 11:23 Surrey,BC       
  365  36/41  R  7/9  R-Fem  3:07:45  372  SCU Loonies            392 40:53  336 1:26:05  17.3  370 2:06:58  347 60:47  9:47 Squamish,BC     
  366 137/167 F 39/43 F2529  3:07:57  321 Kerry Taylor            273 31:14  307 1:21:58  18.2  293 1:53:12  394 74:45 12:02 Vancouver,BC    
  367 138/167 F 45/50 F3034  3:08:01    7 Heather Alexander       381 38:57  368 1:30:54  16.4  380 2:09:51  318 58:10  9:22 Vancouver,BC    
  368 139/167 F 10/14 F4044  3:08:12  186 Lisa Lawrence           346 35:58  374 1:32:39  16.1  377 2:08:37  334 59:35  9:36 North Vancouver,
  369 140/167 F  7/12 F4549  3:08:59  197 Brenda Lightfoot        303 32:37  376 1:33:40  15.9  367 2:06:17  363 62:42 10:06 Surrey,BC       
  370  37/41  R  8/9  R-Fem  3:09:17  389  Danielle,Caroline,Kri  403 47:53  361 1:29:19  16.7  393 2:17:12  213 52:05  8:23 Squamish,BC     
  371 141/167 F  8/12 F4549  3:09:52  338 Alice Turkenburg        278 31:20  379 1:35:54  15.6  372 2:07:14  362 62:38 10:05 Kamloops,BC     
  372  38/41  R 20/22 R-Mix  3:10:54  383  The Tandem Team        382 39:03  341 1:26:36  17.2  366 2:05:39  375 65:15 10:31 Garibaldi Highln,
  373 142/167 F 46/50 F3034  3:10:55  238 Lara Mendenhall         275 31:18  381 1:37:03  15.4  374 2:08:21  360 62:34 10:05 Vancouver,BC    
  374 143/167 F 20/22 F3539  3:11:10   76 Deni DeLory             307 32:46  387 1:41:36  14.7  389 2:14:22  298 56:48  9:09 Vancouver,BC    
  375 144/167 F 40/43 F2529  3:11:17  192 Tracy Letnes            365 37:09  371 1:31:20  16.3  375 2:08:29  365 62:48 10:07 Burnaby,BC      
  376 145/167 F 47/50 F3034  3:11:23  105 Tonya Frizzell          373 37:40  367 1:30:50  16.4  376 2:08:30  366 62:53 10:08 Vancouver,BC    
  377 146/167 F 11/14 F4044  3:12:08  467 Michaela Wooldridge     308 32:47  364 1:29:58  16.6  357 2:02:45  387 69:23 11:10 Delta,BC        
  378 194/201 M 33/33 M3539  3:12:31  482 Ingo Moxon              383 39:07  373 1:32:17  16.2  382 2:11:24  350 61:07  9:51 Vancouver,BC    
  379 147/167 F 21/22 F3539  3:14:34   73 Monica Danon-Schaffer   280 31:27  377 1:35:44  15.6  371 2:07:11  382 67:23 10:51 West Vancouver,B
  380 148/167 F 41/43 F2529  3:15:09  217 Shana Marfell           378 38:23  380 1:37:00  15.4  391 2:15:23  338 59:46  9:38 Vancouver,BC    
  381  39/41  R 21/22 R-Mix  3:16:03  374  Splash Crash and Dash  329 34:13  392 1:44:25  14.3  394 2:18:38  308 57:25  9:15 Brackendale,BC  
  382 149/167 F  9/12 F4549  3:17:21  201 Sharon Lonergan         384 39:21  375 1:33:12  16.0  385 2:12:33  372 64:48 10:26 Kelowna,BC      
  383 195/201 M  4/4  M6064  3:18:16   59 Murray Coates           394 42:09  348 1:27:23  17.1  379 2:09:32  386 68:44 11:04 Whistler,BC     
  384 196/201 M  8/9  M5054  3:20:10  200 Terry Loftus            389 39:56  390 1:43:42  14.4  397 2:23:38  295 56:32  9:06 North Vancouver,
  385 150/167 F 10/12 F4549  3:20:45   69 Gillian Cullen          286 31:41  386 1:41:16  14.7  386 2:12:57  384 67:48 10:55 West Vancouver,B
  386 151/167 F 42/43 F2529  3:23:49  216 Sarah Marchildon        190 28:28  393 1:45:17  14.2  388 2:13:45  390 70:04 11:17 Vancouver,BC    
  387 152/167 F 48/50 F3034  3:24:08   88 Leanie Eksteen          364 37:08  383 1:37:18  15.3  390 2:14:26  388 69:42 11:14 Squamish,BC     
  388 197/201 M  2/2  M6569  3:24:18  194 Hilmar Lewandowski      345 35:47  395 1:48:52  13.7  398 2:24:39  337 59:39  9:36 Surrey,BC       
  389  40/41  R  9/9  R-Fem  3:24:51  353  BetterLateThanNevers   375 38:05  388 1:41:47  14.7  395 2:19:52  374 64:59 10:28 Brackendale,BC  
  390 198/201 M 18/18 M4549  3:26:49   58 Jack Coady              353 36:16  382 1:37:06  15.4  387 2:13:22  392 73:27 11:50 Vancouver,BC    
  391 199/201 M  9/9  M5054  3:27:58   35 Greg Booth              396 43:06  389 1:42:18  14.6  399 2:25:24  361 62:34 10:05 Vancouver,BC    
  392 153/167 F 43/43 F2529  3:29:06  176 Lara Keehn              270 31:12  385 1:38:00  15.2  378 2:09:12  399 79:54 12:52 Calgary,AB      
  393 154/167 F 22/22 F3539  3:31:11    5 Jill Aikens             333 34:40  384 1:37:50  15.2  384 2:12:30  398 78:41 12:40 Garibaldi Highln,
  394 155/167 F 12/14 F4044  3:31:13  123 Ellen Hall              380 38:50  391 1:44:08  14.3  396 2:22:58  385 68:15 11:00 Langley,BC      
  395 156/167 F 13/14 F4044  3:34:36  311 Michele Steenssens      391 40:50  378 1:35:52  15.6  392 2:16:42  397 77:54 12:33 Garibaldi Highln,
  396 157/167 F 14/14 F4044  3:36:06  271 Rosalinda Perez         368 37:17  398 1:54:00  13.1  402 2:31:17  373 64:49 10:26 DF,Coyoacan,MX  
  397 158/167 F  2/2  F5559  3:36:40  332 Joyce Torrance          401 45:42  394 1:46:33  14.0  403 2:32:15  371 64:25 10:23 North Vancouver,
  398 159/167 F  3/5  F5054  3:44:47  304 Heather Sidsworth       336 34:48  399 1:54:09  13.1  400 2:28:57  396 75:50 12:13 Squamish,BC     
  399 160/167 F 11/12 F4549  3:45:17  247 Johanna Mramor          393 41:17  397 1:49:21  13.6  401 2:30:38  393 74:39 12:01 White Rock,BC   
  400 161/167 F  4/5  F5054  3:48:37  189 JoJi Leduc              398 44:33  396 1:49:04  13.7  404 2:33:37  395 75:00 12:05 Vancouver,BC    
  401  41/41  R 22/22 R-Mix           257 Keith Nicoll             14 21:10   58 1:07:30  22.1   27 1:28:40                  North Vancouver,
  402 200/201 M 23/23 M2529           475 Jay Bicknell            170 27:47  287 1:20:27  18.5  243 1:48:14                  Garibaldi Hlnds,
  403 201/201 M 47/47 M3034           481 Brent Lokash            259 30:31  281 1:20:09  18.6  276 1:50:40                  Vancouver,BC    
  404 162/167 F 49/50 F3034             3 Traci Addison           288 31:43  318 1:22:58  18.0  305 1:54:41                  Coquitlam,BC    
  405 163/167 F 12/12 F4549            13 Mona Ayer               350 36:08  372 1:31:46  16.3  373 2:07:54                  Prince George,BC
  406 164/167 F 17/18 F2024           118 Tanja Grad               54 24:16                                                  Victoria,BC     
  407 165/167 F 50/50 F3034           133 Lisa Hebert             197 28:34                                                  Nanaimo,BC      
  408 166/167 F 18/18 F2024           230 Meegan McGillivray      202 28:39                                                  Roberts Creek,BC
  409 167/167 F  5/5  F5054           205 Donna Lowe              399 44:46                                                  Surrey,BC       

return to the Race Headquarters Home Page